Time;durP1;ratioP1;P1;durP2;ratioP2;P2;SDS_P1;SDS_P2;PMS_P1;PMS_P2;Temp;Humidity;BMP_temperature;BMP_pressure;BME280_temperature;BME280_humidity;BME280_pressure;Samples;Min_cycle;Max_cycle;Signal;HPM_P1;HPM_P2
2023/05/20 00:02:06;;;;;;;4.50;3.53;;;13.00;99.90;;;;;;5090968;28;20475;-47
2023/05/20 00:04:33;;;;;;;3.77;3.43;;;13.00;99.90;;;;;;5091174;28;20502;-47
2023/05/20 00:07:02;;;;;;;5.17;3.13;;;12.90;99.90;;;;;;5090410;28;20523;-48
2023/05/20 00:09:29;;;;;;;3.30;3.00;;;12.90;99.90;;;;;;5091324;28;20450;-47
2023/05/20 00:11:56;;;;;;;6.50;3.10;;;12.90;99.90;;;;;;5091330;28;20533;-48
2023/05/20 00:14:23;;;;;;;4.43;3.20;;;12.80;99.90;;;;;;5093210;28;20491;-47
2023/05/20 00:16:50;;;;;;;6.03;3.83;;;12.80;99.90;;;;;;5095206;28;20889;-48
2023/05/20 00:19:17;;;;;;;4.00;3.37;;;12.60;99.90;;;;;;5095380;28;20566;-48
2023/05/20 00:21:43;;;;;;;5.80;3.93;;;12.50;99.90;;;;;;5095359;28;20577;-49
2023/05/20 00:24:12;;;;;;;6.30;4.30;;;12.50;99.90;;;;;;5095222;28;21032;-48
2023/05/20 00:26:39;;;;;;;4.80;4.20;;;12.40;99.90;;;;;;5095053;28;20522;-48
2023/05/20 00:29:05;;;;;;;4.03;3.63;;;12.40;99.90;;;;;;5095259;28;20479;-48
2023/05/20 00:31:32;;;;;;;4.70;3.97;;;12.40;99.90;;;;;;5094544;28;20793;-48
2023/05/20 00:33:59;;;;;;;6.40;3.70;;;12.40;99.90;;;;;;5095189;28;20463;-47
2023/05/20 00:36:26;;;;;;;3.87;3.10;;;12.40;99.90;;;;;;5094784;28;20478;-49
2023/05/20 00:38:53;;;;;;;3.60;3.30;;;12.40;99.90;;;;;;5094782;28;20490;-50
2023/05/20 00:41:21;;;;;;;4.37;3.03;;;12.40;99.90;;;;;;5095091;28;20447;-47
2023/05/20 00:43:48;;;;;;;4.73;3.63;;;12.40;99.90;;;;;;5094774;28;20719;-47
2023/05/20 00:46:15;;;;;;;4.03;3.40;;;12.40;99.90;;;;;;5094551;28;20531;-47
2023/05/20 00:48:43;;;;;;;4.40;3.27;;;12.40;99.90;;;;;;5094787;28;20529;-48
2023/05/20 00:51:11;;;;;;;2.67;2.37;;;12.30;99.90;;;;;;5094557;28;20530;-47
2023/05/20 00:53:38;;;;;;;3.23;2.93;;;12.30;99.90;;;;;;5094539;28;20546;-48
2023/05/20 00:56:06;;;;;;;4.40;3.53;;;12.20;99.90;;;;;;5094863;28;20519;-47
2023/05/20 00:58:36;;;;;;;3.90;3.50;;;12.20;99.90;;;;;;5094031;28;20531;-47
2023/05/20 01:01:03;;;;;;;4.90;3.77;;;12.20;99.90;;;;;;5094907;28;20493;-50
2023/05/20 01:03:30;;;;;;;4.93;4.07;;;12.10;99.90;;;;;;5094524;28;20466;-48
2023/05/20 01:05:57;;;;;;;5.10;4.40;;;12.00;99.90;;;;;;5094338;28;20486;-49
2023/05/20 01:08:25;;;;;;;4.80;4.30;;;12.00;99.90;;;;;;5094468;28;20524;-48
2023/05/20 01:11:00;;;;;;;5.83;4.07;;;12.00;99.90;;;;;;5094087;28;20890;-47
2023/05/20 01:13:33;;;;;;;4.40;4.00;;;11.90;99.90;;;;;;5094218;28;20508;-47
2023/05/20 01:16:04;;;;;;;5.07;3.33;;;11.90;99.90;;;;;;5094065;28;20443;-48
2023/05/20 01:18:33;;;;;;;6.40;3.93;;;11.90;99.90;;;;;;5094697;28;20481;-47
2023/05/20 01:21:03;;;;;;;4.70;4.30;;;11.90;99.90;;;;;;5093315;28;20482;-50
2023/05/20 01:23:38;;;;;;;4.83;4.00;;;12.40;99.90;;;;;;5094598;28;20467;-47
2023/05/20 01:26:06;;;;;;;7.27;4.20;;;11.90;99.90;;;;;;5093355;28;20530;-48
2023/05/20 01:28:33;;;;;;;5.83;3.63;;;11.90;99.90;;;;;;5094000;28;20445;-48
2023/05/20 01:31:02;;;;;;;3.93;3.20;;;11.90;99.90;;;;;;5093719;28;20989;-48
2023/05/20 01:33:30;;;;;;;3.53;3.20;;;12.00;99.90;;;;;;5094003;28;20466;-47
2023/05/20 01:35:59;;;;;;;4.37;3.67;;;12.00;99.90;;;;;;5094115;28;20546;-47
2023/05/20 01:38:26;;;;;;;4.67;3.73;;;12.00;99.90;;;;;;5093910;28;20485;-47
2023/05/20 01:40:57;;;;;;;4.60;4.20;;;12.00;99.90;;;;;;5093743;28;20485;-48
2023/05/20 01:43:25;;;;;;;4.80;4.30;;;11.90;99.90;;;;;;5093804;28;20471;-48
2023/05/20 01:45:52;;;;;;;4.77;3.80;;;11.90;99.90;;;;;;5093464;28;20479;-48
2023/05/20 01:48:19;;;;;;;4.30;3.90;;;11.90;99.90;;;;;;5093592;28;20964;-48
2023/05/20 01:50:46;;;;;;;5.40;4.37;;;11.90;99.90;;;;;;5093696;28;20470;-48
2023/05/20 01:53:13;;;;;;;4.27;3.70;;;11.90;99.90;;;;;;5093681;28;20478;-49
2023/05/20 01:55:40;;;;;;;5.33;3.70;;;11.90;99.90;;;;;;5093527;28;20519;-47
2023/05/20 01:58:08;;;;;;;6.93;4.07;;;11.80;99.90;;;;;;5093057;28;20541;-48
2023/05/20 02:00:36;;;;;;;4.00;3.60;;;11.80;99.90;;;;;;5093073;28;21004;-47
2023/05/20 02:03:03;;;;;;;4.63;3.30;;;11.80;99.90;;;;;;5093236;28;20538;-47
2023/05/20 02:05:30;;;;;;;3.97;3.67;;;11.70;99.90;;;;;;5093086;28;20469;-48
2023/05/20 02:07:57;;;;;;;4.63;4.20;;;11.70;99.90;;;;;;5092827;28;20446;-47
2023/05/20 02:10:24;;;;;;;4.40;3.20;;;11.70;99.90;;;;;;5093289;28;20492;-47
2023/05/20 02:12:50;;;;;;;5.63;3.73;;;11.60;99.90;;;;;;5100934;22;20516;-78
2023/05/20 02:15:19;;;;;;;6.07;4.10;;;11.50;99.90;;;;;;5074643;28;20443;-78
2023/05/20 02:17:46;;;;;;;4.30;3.90;;;11.40;99.90;;;;;;5074299;28;20632;-78
2023/05/20 02:20:13;;;;;;;7.40;4.10;;;11.40;99.90;;;;;;5073541;28;20567;-78
2023/05/20 02:22:40;;;;;;;4.37;3.30;;;11.30;99.90;;;;;;5073674;28;20490;-78
2023/05/20 02:25:08;;;;;;;6.07;4.10;;;11.40;99.90;;;;;;5074149;28;20557;-78
2023/05/20 02:27:35;;;;;;;4.73;4.10;;;11.40;99.90;;;;;;5073759;28;20495;-78
2023/05/20 02:30:02;;;;;;;7.60;4.63;;;11.40;99.90;;;;;;5073497;28;20471;-78
2023/05/20 02:32:32;;;;;;;4.60;3.87;;;11.40;99.90;;;;;;5071999;28;20447;-78
2023/05/20 02:34:59;;;;;;;4.23;3.30;;;11.50;99.90;;;;;;5072067;28;20445;-78
2023/05/20 02:37:27;;;;;;;4.10;3.03;;;11.40;99.90;;;;;;5071857;28;20502;-78
2023/05/20 02:39:55;;;;;;;5.73;4.37;;;11.40;99.90;;;;;;5072512;28;20884;-78
2023/05/20 02:42:21;;;;;;;4.17;2.60;;;11.40;99.90;;;;;;5071851;28;21113;-78
2023/05/20 02:44:48;;;;;;;5.50;3.30;;;11.40;99.90;;;;;;5072204;28;20530;-78
2023/05/20 02:47:15;;;;;;;5.03;4.30;;;11.50;99.90;;;;;;5073378;28;20555;-78
2023/05/20 02:49:44;;;;;;;4.70;3.70;;;11.50;99.90;;;;;;5074989;28;20441;-78
2023/05/20 02:52:10;;;;;;;4.20;3.80;;;11.50;99.90;;;;;;5073541;28;20455;-78
2023/05/20 02:54:37;;;;;;;4.70;3.80;;;11.40;99.90;;;;;;5074355;28;20498;-78
2023/05/20 02:57:04;;;;;;;4.60;3.60;;;11.40;99.90;;;;;;5073731;28;20574;-78
2023/05/20 02:59:31;;;;;;;3.50;3.20;;;11.50;99.90;;;;;;5073104;28;20483;-78
2023/05/20 03:01:58;;;;;;;6.87;4.13;;;11.40;99.90;;;;;;5073039;28;20527;-78
2023/05/20 03:04:25;;;;;;;4.73;4.00;;;11.40;99.90;;;;;;5073580;28;20496;-78
2023/05/20 03:06:56;;;;;;;3.63;3.10;;;11.40;99.90;;;;;;5073089;28;20471;-78
2023/05/20 03:09:23;;;;;;;4.07;3.17;;;11.40;99.90;;;;;;5073578;28;20472;-78
2023/05/20 03:11:50;;;;;;;4.20;3.30;;;11.40;99.90;;;;;;5075330;28;20524;-78
2023/05/20 03:14:17;;;;;;;3.97;3.57;;;11.20;99.90;;;;;;5072829;28;20443;-78
2023/05/20 03:16:44;;;;;;;4.17;3.30;;;11.10;99.90;;;;;;5072518;28;21063;-78
2023/05/20 03:19:11;;;;;;;5.03;4.53;;;11.20;99.90;;;;;;5072693;28;20479;-78
2023/05/20 03:21:38;;;;;;;5.07;4.03;;;11.20;99.90;;;;;;5071387;28;20552;-78
2023/05/20 03:24:07;;;;;;;3.87;3.40;;;11.30;99.90;;;;;;5073057;28;20533;-78
2023/05/20 03:26:36;;;;;;;4.00;3.43;;;11.30;99.90;;;;;;5072486;28;20821;-78
2023/05/20 03:29:03;;;;;;;4.60;3.23;;;11.20;99.90;;;;;;5072614;28;20832;-78
2023/05/20 03:31:30;;;;;;;4.57;3.20;;;11.30;99.90;;;;;;5072556;28;20505;-78
2023/05/20 03:33:57;;;;;;;6.10;2.93;;;11.20;99.90;;;;;;5072645;28;20472;-78
2023/05/20 03:36:24;;;;;;;4.60;3.13;;;11.20;99.90;;;;;;5072143;28;20533;-78
2023/05/20 03:38:50;;;;;;;3.30;2.87;;;11.20;99.90;;;;;;5072010;28;20465;-78
2023/05/20 03:41:19;;;;;;;3.67;2.77;;;11.20;99.90;;;;;;5071681;28;20560;-78
2023/05/20 03:43:46;;;;;;;4.33;3.23;;;11.10;99.90;;;;;;5072320;28;20477;-78
2023/05/20 03:46:13;;;;;;;3.50;3.17;;;11.10;99.90;;;;;;5072214;28;20530;-78
2023/05/20 03:48:40;;;;;;;5.13;3.37;;;11.20;99.90;;;;;;5071860;28;20476;-78
2023/05/20 03:51:07;;;;;;;6.13;3.30;;;11.00;99.90;;;;;;5072495;28;20448;-78
2023/05/20 03:53:34;;;;;;;4.67;3.03;;;11.00;99.90;;;;;;5072512;28;20545;-79
2023/05/20 03:56:01;;;;;;;5.20;2.93;;;11.00;99.90;;;;;;5072213;28;20454;-78
2023/05/20 03:58:30;;;;;;;2.73;2.53;;;11.00;99.90;;;;;;5071527;28;20502;-78
2023/05/20 04:00:57;;;;;;;3.63;3.33;;;11.00;99.90;;;;;;5072496;28;20562;-79
2023/05/20 04:03:23;;;;;;;4.90;2.90;;;11.00;99.90;;;;;;5072150;28;20877;-79
2023/05/20 04:05:50;;;;;;;3.63;2.90;;;11.00;99.90;;;;;;5071599;28;20539;-78
2023/05/20 04:08:18;;;;;;;3.67;3.37;;;11.10;99.90;;;;;;5072067;28;20907;-78
2023/05/20 04:10:45;;;;;;;3.10;2.80;;;11.10;99.90;;;;;;5072146;28;20435;-78
2023/05/20 04:13:12;;;;;;;4.90;3.10;;;11.00;99.90;;;;;;5072726;28;20441;-78
2023/05/20 04:15:41;;;;;;;3.57;3.23;;;11.00;99.90;;;;;;5072068;28;20437;-78
2023/05/20 04:18:09;;;;;;;4.00;2.97;;;11.00;99.90;;;;;;5071936;28;20834;-78
2023/05/20 04:20:36;;;;;;;3.83;2.77;;;11.10;99.90;;;;;;5071539;28;20478;-78
2023/05/20 04:23:02;;;;;;;4.53;2.60;;;11.10;99.90;;;;;;5072264;28;20486;-78
2023/05/20 04:25:29;;;;;;;10.70;6.50;;;11.20;99.90;;;;;;5072379;28;20454;-78
2023/05/20 04:27:57;;;;;;;4.67;3.37;;;11.20;99.90;;;;;;5072559;28;20486;-78
2023/05/20 04:30:24;;;;;;;3.97;3.23;;;11.30;99.90;;;;;;5073118;28;20863;-78
2023/05/20 04:32:52;;;;;;;4.33;3.07;;;11.30;99.90;;;;;;5072220;28;20463;-78
2023/05/20 04:35:19;;;;;;;3.70;3.07;;;11.40;99.90;;;;;;5071635;28;20539;-78
2023/05/20 04:37:47;;;;;;;3.07;2.60;;;11.40;99.90;;;;;;5071745;28;20506;-78
2023/05/20 04:40:15;;;;;;;3.53;3.23;;;11.40;99.90;;;;;;5071943;28;20818;-78
2023/05/20 04:42:43;;;;;;;3.20;2.80;;;11.50;99.90;;;;;;5072385;28;20447;-78
2023/05/20 04:45:11;;;;;;;4.90;2.77;;;11.50;99.90;;;;;;5072464;28;20454;-78
2023/05/20 04:47:38;;;;;;;5.90;3.67;;;11.60;99.90;;;;;;5072232;28;20494;-78
2023/05/20 04:50:10;;;;;;;3.43;3.03;;;11.50;99.90;;;;;;5072300;28;20456;-78
2023/05/20 04:52:37;;;;;;;3.40;3.07;;;11.50;99.90;;;;;;5072159;28;20448;-78
2023/05/20 04:55:05;;;;;;;3.73;3.33;;;11.40;99.90;;;;;;5072021;28;20533;-78
2023/05/20 04:57:34;;;;;;;4.13;3.60;;;11.50;99.90;;;;;;5071651;28;20900;-78
2023/05/20 05:00:01;;;;;;;8.37;4.00;;;11.50;99.90;;;;;;5073313;28;20527;-78
2023/05/20 05:02:28;;;;;;;4.20;3.13;;;11.50;99.90;;;;;;5076088;28;20590;-78
2023/05/20 05:04:55;;;;;;;4.53;3.67;;;11.50;99.90;;;;;;5077080;28;20907;-78
2023/05/20 05:07:23;;;;;;;4.07;3.43;;;11.60;99.90;;;;;;5077725;28;20470;-79
2023/05/20 05:09:50;;;;;;;4.07;3.67;;;11.60;99.90;;;;;;5076945;28;20543;-78
2023/05/20 05:12:17;;;;;;;4.80;4.30;;;11.70;99.90;;;;;;5076575;28;20535;-78
2023/05/20 05:14:44;;;;;;;6.17;4.23;;;11.70;99.90;;;;;;5077433;28;20471;-78
2023/05/20 05:17:11;;;;;;;6.30;4.50;;;11.70;99.90;;;;;;5076391;28;20552;-78
2023/05/20 05:19:38;;;;;;;6.53;4.70;;;11.60;99.90;;;;;;5077113;28;20471;-78
2023/05/20 05:22:05;;;;;;;7.47;4.90;;;11.60;99.90;;;;;;5076555;28;20479;-78
2023/05/20 05:24:33;;;;;;;5.70;4.70;;;11.50;99.90;;;;;;5077119;28;20447;-78
2023/05/20 05:27:00;;;;;;;6.23;5.63;;;11.50;99.90;;;;;;5077717;28;20511;-78
2023/05/20 05:29:27;;;;;;;7.30;5.43;;;11.60;99.90;;;;;;5077019;28;20456;-79
2023/05/20 05:31:54;;;;;;;7.67;6.17;;;11.60;99.90;;;;;;5076779;28;20463;-78
2023/05/20 05:34:21;;;;;;;9.90;5.80;;;11.70;99.90;;;;;;5077209;28;20476;-79
2023/05/20 05:36:48;;;;;;;7.70;6.40;;;11.70;99.90;;;;;;5075969;28;20971;-78
2023/05/20 05:39:15;;;;;;;7.37;4.77;;;11.70;99.90;;;;;;5076067;28;20441;-78
2023/05/20 05:41:43;;;;;;;6.20;5.40;;;11.60;99.90;;;;;;5076166;28;20486;-78
2023/05/20 05:44:10;;;;;;;5.00;4.50;;;11.60;99.90;;;;;;5075648;28;20473;-78
2023/05/20 05:46:37;;;;;;;6.93;5.83;;;11.60;99.90;;;;;;5075548;28;20504;-78
2023/05/20 05:49:04;;;;;;;4.77;4.30;;;11.60;99.90;;;;;;5075935;28;20725;-78
2023/05/20 05:51:30;;;;;;;6.47;4.70;;;11.70;99.90;;;;;;5076463;28;20444;-79
2023/05/20 05:53:57;;;;;;;5.57;4.97;;;11.80;99.90;;;;;;5077942;28;20916;-79
2023/05/20 05:56:24;;;;;;;5.30;4.80;;;11.90;99.90;;;;;;5077138;28;20447;-78
2023/05/20 05:58:53;;;;;;;7.20;5.10;;;12.00;99.90;;;;;;5076449;28;20452;-78
2023/05/20 06:01:20;;;;;;;7.37;5.10;;;12.00;99.90;;;;;;5075210;28;20836;-78
2023/05/20 06:03:47;;;;;;;4.50;3.93;;;12.10;99.90;;;;;;5075035;28;20441;-78
2023/05/20 06:06:14;;;;;;;6.83;4.13;;;12.10;99.90;;;;;;5076234;28;20486;-79
2023/05/20 06:08:41;;;;;;;7.10;5.27;;;12.20;99.90;;;;;;5075284;28;20480;-78
2023/05/20 06:11:08;;;;;;;6.43;4.80;;;12.20;99.90;;;;;;5076702;28;20863;-78
2023/05/20 06:13:36;;;;;;;5.00;4.43;;;12.30;99.90;;;;;;5077617;28;20478;-78
2023/05/20 06:16:04;;;;;;;5.20;4.70;;;12.30;99.90;;;;;;5077626;28;20471;-78
2023/05/20 06:18:31;;;;;;;7.80;4.97;;;12.40;99.90;;;;;;5075944;28;20469;-78
2023/05/20 06:20:59;;;;;;;8.10;4.80;;;12.50;99.90;;;;;;5076464;28;20866;-79
2023/05/20 06:23:26;;;;;;;5.87;5.33;;;12.50;99.90;;;;;;5077178;28;20872;-79
2023/05/20 06:25:53;;;;;;;5.40;4.90;;;12.60;99.90;;;;;;5074800;28;20897;-79
2023/05/20 06:28:21;;;;;;;5.97;5.30;;;12.70;99.90;;;;;;5077930;28;20453;-79
2023/05/20 06:30:47;;;;;;;5.53;4.50;;;12.70;99.90;;;;;;5077161;28;20495;-79
2023/05/20 06:33:16;;;;;;;6.50;5.20;;;12.70;99.90;;;;;;5078165;28;20445;-79
2023/05/20 06:35:43;;;;;;;9.43;4.50;;;12.70;99.90;;;;;;5077884;28;20470;-79
2023/05/20 06:38:10;;;;;;;4.87;4.40;;;12.70;99.90;;;;;;5076228;28;21000;-79
2023/05/20 06:40:37;;;;;;;4.93;4.20;;;12.80;99.90;;;;;;5076125;28;20464;-78
2023/05/20 06:43:04;;;;;;;4.83;4.33;;;12.80;99.90;;;;;;5076961;28;20529;-78
2023/05/20 06:45:31;;;;;;;5.60;4.03;;;12.80;99.90;;;;;;5076825;28;20493;-79
2023/05/20 06:47:59;;;;;;;5.37;4.43;;;12.80;99.90;;;;;;5076361;28;20487;-79
2023/05/20 06:50:28;;;;;;;3.67;3.07;;;12.90;99.90;;;;;;5077174;28;20983;-79
2023/05/20 06:52:55;;;;;;;7.50;4.47;;;13.00;99.90;;;;;;5074629;28;20432;-79
2023/05/20 06:55:22;;;;;;;4.70;4.30;;;13.10;99.90;;;;;;5073966;28;20472;-78
2023/05/20 06:57:49;;;;;;;5.70;4.83;;;13.20;99.90;;;;;;5072039;28;20778;-76
2023/05/20 07:00:16;;;;;;;7.00;4.47;;;13.20;99.90;;;;;;5072790;28;20441;-76
2023/05/20 07:02:43;;;;;;;6.23;4.20;;;13.30;99.90;;;;;;5071477;28;20560;-78
2023/05/20 07:05:10;;;;;;;6.30;3.70;;;13.40;99.90;;;;;;5072203;28;20448;-78
2023/05/20 07:07:39;;;;;;;4.33;3.90;;;13.40;99.90;;;;;;5071947;28;20547;-78
2023/05/20 07:10:08;;;;;;;7.60;3.90;;;13.50;99.90;;;;;;5071598;28;20498;-78
2023/05/20 07:12:35;;;;;;;5.57;3.90;;;13.50;99.90;;;;;;5065168;28;20560;-77
2023/05/20 07:15:02;;;;;;;5.50;4.40;;;13.50;99.90;;;;;;5065626;28;20915;-77
2023/05/20 07:17:29;;;;;;;6.77;3.90;;;13.50;99.90;;;;;;5068301;28;20500;-77
2023/05/20 07:19:56;;;;;;;5.50;3.53;;;13.50;99.90;;;;;;5068419;28;21002;-78
2023/05/20 07:22:23;;;;;;;9.87;2.73;;;13.50;99.90;;;;;;5066885;28;20508;-77
2023/05/20 07:24:51;;;;;;;4.30;3.30;;;13.50;99.90;;;;;;5068019;28;21028;-78
2023/05/20 07:27:18;;;;;;;3.30;2.70;;;13.60;99.90;;;;;;5061028;28;20465;-77
2023/05/20 07:29:45;;;;;;;4.50;3.27;;;13.60;99.90;;;;;;5068145;28;20505;-78
2023/05/20 07:32:12;;;;;;;5.93;3.47;;;13.70;99.90;;;;;;5068485;28;20871;-78
2023/05/20 07:34:39;;;;;;;5.17;3.63;;;13.70;99.90;;;;;;5068407;28;20481;-78
2023/05/20 07:37:08;;;;;;;3.80;3.40;;;13.80;99.90;;;;;;5067807;28;20544;-77
2023/05/20 07:39:35;;;;;;;4.07;3.40;;;13.80;99.90;;;;;;5068162;28;20448;-78
2023/05/20 07:42:03;;;;;;;3.87;3.33;;;13.90;99.90;;;;;;5067876;28;20514;-77
2023/05/20 07:44:30;;;;;;;12.53;8.93;;;13.90;99.90;;;;;;5068099;28;20506;-78
2023/05/20 07:46:57;;;;;;;3.23;2.93;;;14.00;99.90;;;;;;5067744;28;20940;-77
2023/05/20 07:49:24;;;;;;;4.23;3.30;;;14.00;99.90;;;;;;5070584;28;20555;-78
2023/05/20 07:51:51;;;;;;;3.70;2.80;;;14.00;99.90;;;;;;5068734;28;20603;-77
2023/05/20 07:54:18;;;;;;;4.10;3.17;;;14.10;99.90;;;;;;5068806;28;20468;-78
2023/05/20 07:56:45;;;;;;;2.93;2.63;;;14.10;99.90;;;;;;5070025;28;20500;-78
2023/05/20 07:59:13;;;;;;;2.53;2.33;;;14.20;99.90;;;;;;5073096;28;20440;-77
2023/05/20 08:01:41;;;;;;;4.83;2.60;;;14.30;99.90;;;;;;5071725;28;20479;-78
2023/05/20 08:04:08;;;;;;;3.70;2.30;;;14.40;99.90;;;;;;5071464;28;20448;-78
2023/05/20 08:06:35;;;;;;;2.70;2.00;;;14.40;99.90;;;;;;5069869;28;20500;-78
2023/05/20 08:09:03;;;;;;;2.23;2.03;;;14.40;99.90;;;;;;5071807;28;20857;-78
2023/05/20 08:11:30;;;;;;;2.73;2.43;;;14.40;99.90;;;;;;5071172;28;20452;-78
2023/05/20 08:13:57;;;;;;;3.40;2.40;;;14.50;99.90;;;;;;5072232;28;20531;-78
2023/05/20 08:16:25;;;;;;;3.23;2.47;;;14.60;99.90;;;;;;5074513;28;20518;-78
2023/05/20 08:18:52;;;;;;;2.50;2.10;;;14.80;99.90;;;;;;5072482;28;20472;-79
2023/05/20 08:21:20;;;;;;;4.43;2.30;;;15.10;99.90;;;;;;5071521;28;20508;-79
2023/05/20 08:23:47;;;;;;;3.07;2.27;;;15.00;99.90;;;;;;5072443;28;20536;-79
2023/05/20 08:26:14;;;;;;;2.57;2.37;;;15.10;99.90;;;;;;5071199;28;20449;-80
2023/05/20 08:28:41;;;;;;;3.30;2.47;;;15.10;99.90;;;;;;5071241;28;20456;-80
2023/05/20 08:31:08;;;;;;;3.83;2.47;;;15.10;99.90;;;;;;5071251;28;20487;-80
2023/05/20 08:33:36;;;;;;;2.80;2.43;;;15.10;99.90;;;;;;5071344;28;20440;-80
2023/05/20 08:36:04;;;;;;;2.60;2.40;;;15.10;99.90;;;;;;5073925;28;20468;-80
2023/05/20 08:38:30;;;;;;;2.90;2.30;;;15.20;99.90;;;;;;5074624;28;20469;-80
2023/05/20 08:40:58;;;;;;;4.40;2.30;;;15.20;99.90;;;;;;5074686;28;20531;-80
2023/05/20 08:43:26;;;;;;;2.60;2.30;;;15.30;99.90;;;;;;5074709;28;20508;-80
2023/05/20 08:45:53;;;;;;;4.30;2.47;;;15.30;99.90;;;;;;5072737;28;20458;-80
2023/05/20 08:48:23;;;;;;;2.97;2.63;;;15.40;99.90;;;;;;5073562;28;20703;-80
2023/05/20 08:50:52;;;;;;;2.57;2.23;;;15.50;99.90;;;;;;5074292;28;20468;-80
2023/05/20 08:53:21;;;;;;;3.20;2.83;;;15.60;99.90;;;;;;5074254;28;20497;-80
2023/05/20 08:55:53;;;;;;;3.00;2.30;;;15.70;99.90;;;;;;5074362;28;20479;-79
2023/05/20 08:58:22;;;;;;;3.13;2.40;;;15.80;99.90;;;;;;5073384;28;20558;-80
2023/05/20 09:00:49;;;;;;;4.50;2.70;;;15.80;99.90;;;;;;5074586;28;20445;-80
2023/05/20 09:03:15;;;;;;;6.50;3.60;;;15.80;99.90;;;;;;5074256;28;20507;-80
2023/05/20 09:05:42;;;;;;;3.97;2.47;;;15.90;99.90;;;;;;5074097;28;20821;-80
2023/05/20 09:08:11;;;;;;;3.23;2.10;;;16.00;99.90;;;;;;5074081;28;20552;-79
2023/05/20 09:10:40;;;;;;;2.50;2.00;;;16.00;99.90;;;;;;5073022;28;20891;-80
2023/05/20 09:13:08;;;;;;;3.00;2.50;;;16.10;99.90;;;;;;5073209;28;20545;-80
2023/05/20 09:15:36;;;;;;;4.10;2.33;;;16.10;99.90;;;;;;5073025;28;20930;-80
2023/05/20 09:18:04;;;;;;;2.20;2.00;;;16.20;99.90;;;;;;5074188;28;20466;-80
2023/05/20 09:20:33;;;;;;;3.60;2.33;;;16.20;99.90;;;;;;5072948;28;20871;-80
2023/05/20 09:23:01;;;;;;;3.50;2.57;;;16.30;99.90;;;;;;5072815;28;21072;-80
2023/05/20 09:25:30;;;;;;;2.63;2.30;;;16.30;99.90;;;;;;5073109;28;20446;-80
2023/05/20 09:27:57;;;;;;;2.97;2.27;;;16.30;99.90;;;;;;5073776;28;20465;-80
2023/05/20 09:30:24;;;;;;;4.23;2.70;;;16.30;99.90;;;;;;5073596;28;20450;-80
2023/05/20 09:32:55;;;;;;;2.80;2.43;;;16.30;99.90;;;;;;5073160;28;20436;-80
2023/05/20 09:35:23;;;;;;;4.97;2.60;;;16.40;99.90;;;;;;5072078;28;21096;-79
2023/05/20 09:37:53;;;;;;;2.47;2.27;;;16.40;99.90;;;;;;5073483;28;20546;-80
2023/05/20 09:40:23;;;;;;;5.13;2.93;;;16.40;99.90;;;;;;5072989;28;20876;-80
2023/05/20 09:42:54;;;;;;;4.37;2.13;;;16.40;99.90;;;;;;5072348;28;20474;-79
2023/05/20 09:45:24;;;;;;;2.63;2.10;;;16.60;99.90;;;;;;5069281;28;20443;-79
2023/05/20 09:47:52;;;;;;;5.70;4.73;;;16.70;99.90;;;;;;5071797;28;20509;-80
2023/05/20 09:50:21;;;;;;;2.67;2.20;;;16.80;99.90;;;;;;5069222;28;20450;-80
2023/05/20 09:52:49;;;;;;;2.20;1.70;;;16.90;99.90;;;;;;5071379;28;20532;-80
2023/05/20 09:55:18;;;;;;;3.47;1.93;;;17.00;99.90;;;;;;5072317;28;20458;-80
2023/05/20 09:57:45;;;;;;;2.10;1.60;;;17.10;99.90;;;;;;5072651;28;20566;-80
2023/05/20 10:00:16;;;;;;;4.87;2.20;;;17.40;99.90;;;;;;5071777;28;20550;-81
2023/05/20 10:02:44;;;;;;;3.00;2.17;;;17.40;99.90;;;;;;5073015;28;20565;-80
2023/05/20 10:05:17;;;;;;;2.60;2.37;;;17.50;99.90;;;;;;5071611;28;20498;-80
2023/05/20 10:08:05;;;;;;;2.63;2.10;;;17.50;99.90;;;;;;5071542;28;20507;-80
2023/05/20 10:10:40;;;;;;;2.27;1.90;;;17.60;99.90;;;;;;5071945;28;20527;-80
2023/05/20 10:13:18;;;;;;;2.10;1.83;;;17.60;99.90;;;;;;5072347;28;20500;-81
2023/05/20 10:15:57;;;;;;;2.50;2.13;;;17.50;99.90;;;;;;5072894;28;20525;-81
2023/05/20 10:18:38;;;;;;;3.40;2.20;;;17.70;99.90;;;;;;5071741;28;20546;-80
2023/05/20 10:21:15;;;;;;;3.10;2.23;;;17.80;99.90;;;;;;5071669;28;20524;-80
2023/05/20 10:23:43;;;;;;;2.13;1.93;;;17.80;99.90;;;;;;5072573;28;20498;-80
2023/05/20 10:26:10;;;;;;;2.60;2.20;;;17.80;99.90;;;;;;5072800;28;20475;-80
2023/05/20 10:28:40;;;;;;;2.10;1.80;;;17.90;99.90;;;;;;5072693;28;20546;-81
2023/05/20 10:31:17;;;;;;;2.30;1.90;;;18.20;99.90;;;;;;5072860;28;20521;-80
2023/05/20 10:33:45;;;;;;;5.73;2.20;;;18.20;99.90;;;;;;5072849;28;20443;-80
2023/05/20 10:36:23;;;;;;;3.03;2.30;;;18.10;99.90;;;;;;5072902;28;20447;-80
2023/05/20 10:38:54;;;;;;;3.03;2.37;;;18.20;99.90;;;;;;5072792;28;20456;-80
2023/05/20 10:41:23;;;;;;;3.17;2.37;;;18.20;99.90;;;;;;5072891;28;20449;-80
2023/05/20 10:44:01;;;;;;;3.30;2.53;;;18.30;99.90;;;;;;5072818;28;20589;-80
2023/05/20 10:46:30;;;;;;;3.40;3.10;;;18.30;99.90;;;;;;5072883;28;20513;-80
2023/05/20 10:48:57;;;;;;;4.87;2.47;;;18.20;99.90;;;;;;5073043;28;20480;-81
2023/05/20 10:51:27;;;;;;;2.80;2.50;;;18.20;99.90;;;;;;5073590;28;20454;-80
2023/05/20 10:53:55;;;;;;;2.40;2.20;;;18.20;99.90;;;;;;5072517;28;20452;-80
2023/05/20 10:56:24;;;;;;;3.53;2.50;;;18.40;99.90;;;;;;5072218;28;20535;-80
2023/05/20 10:58:52;;;;;;;3.20;2.83;;;18.60;99.90;;;;;;5071077;28;20528;-81
2023/05/20 11:01:25;;;;;;;2.97;2.10;;;18.60;99.90;;;;;;5071488;28;20501;-80
2023/05/20 11:03:55;;;;;;;3.67;2.50;;;18.50;99.90;;;;;;5071716;28;21036;-80
2023/05/20 11:06:27;;;;;;;2.73;2.03;;;18.40;99.90;;;;;;5071867;28;20445;-80
2023/05/20 11:08:54;;;;;;;3.87;2.20;;;18.50;99.90;;;;;;5071841;28;20448;-80
2023/05/20 11:11:22;;;;;;;2.80;2.43;;;18.50;99.90;;;;;;5071438;28;20484;-80
2023/05/20 11:13:51;;;;;;;2.93;2.20;;;18.50;99.90;;;;;;5071134;28;20472;-80
2023/05/20 11:16:20;;;;;;;3.70;2.70;;;18.50;99.90;;;;;;5071422;28;20436;-80
2023/05/20 11:18:49;;;;;;;3.43;2.90;;;18.50;99.90;;;;;;5072063;28;20470;-80
2023/05/20 11:21:19;;;;;;;3.00;2.40;;;18.50;99.90;;;;;;5071231;28;20514;-80
2023/05/20 11:23:46;;;;;;;4.53;2.90;;;18.50;99.90;;;;;;5071944;28;20485;-80
2023/05/20 11:26:13;;;;;;;3.37;2.43;;;18.50;99.90;;;;;;5071147;28;20444;-81
2023/05/20 11:28:40;;;;;;;4.97;2.57;;;18.50;99.90;;;;;;5071655;28;20552;-81
2023/05/20 11:31:07;;;;;;;2.90;2.37;;;18.50;99.90;;;;;;5071680;28;20452;-80
2023/05/20 11:33:34;;;;;;;3.00;2.70;;;18.50;99.90;;;;;;5071783;28;20499;-80
2023/05/20 11:36:03;;;;;;;3.37;2.37;;;18.80;99.90;;;;;;5071580;28;21006;-80
2023/05/20 11:38:31;;;;;;;2.83;2.40;;;19.10;99.90;;;;;;5071644;28;20476;-80
2023/05/20 11:40:58;;;;;;;5.47;2.67;;;19.20;99.90;;;;;;5070754;28;20532;-80
2023/05/20 11:43:25;;;;;;;4.40;2.70;;;19.20;99.90;;;;;;5071590;28;20515;-80
2023/05/20 11:45:54;;;;;;;3.07;2.37;;;19.20;99.90;;;;;;5071260;28;20525;-80
2023/05/20 11:48:21;;;;;;;3.07;2.37;;;19.20;99.90;;;;;;5071094;28;20832;-80
2023/05/20 11:50:48;;;;;;;4.77;2.60;;;19.10;99.90;;;;;;5071179;28;21016;-80
2023/05/20 11:53:17;;;;;;;3.07;2.53;;;19.00;99.90;;;;;;5071327;28;20530;-80
2023/05/20 11:55:49;;;;;;;3.40;2.90;;;19.00;99.90;;;;;;5071596;28;20463;-80
2023/05/20 11:58:17;;;;;;;3.23;2.23;;;19.00;99.90;;;;;;5070616;28;20943;-80
2023/05/20 12:00:44;;;;;;;2.83;2.50;;;19.00;99.90;;;;;;5070133;28;20941;-80
2023/05/20 12:03:11;;;;;;;3.57;2.67;;;19.00;99.90;;;;;;5070718;28;20476;-80
2023/05/20 12:05:38;;;;;;;4.23;2.73;;;19.00;99.90;;;;;;5071046;28;20542;-80
2023/05/20 12:08:05;;;;;;;4.93;2.93;;;19.00;99.90;;;;;;5071369;28;20531;-80
2023/05/20 12:10:32;;;;;;;3.10;2.37;;;19.00;99.90;;;;;;5071291;28;20441;-80
2023/05/20 12:13:02;;;;;;;3.60;2.13;;;19.10;99.90;;;;;;5070319;28;20515;-80
2023/05/20 12:15:29;;;;;;;2.87;2.30;;;19.00;99.90;;;;;;5071321;28;20444;-80
2023/05/20 12:17:56;;;;;;;3.50;2.30;;;19.10;99.90;;;;;;5071065;28;20574;-79
2023/05/20 12:20:24;;;;;;;3.57;2.80;;;19.20;99.90;;;;;;5070926;28;20534;-81
2023/05/20 12:22:51;;;;;;;3.57;2.53;;;19.30;99.90;;;;;;5071076;28;20541;-81
2023/05/20 12:25:20;;;;;;;2.90;2.50;;;19.30;99.90;;;;;;5071282;28;20529;-81
2023/05/20 12:27:49;;;;;;;2.93;2.13;;;19.20;99.90;;;;;;5071010;28;20473;-81
2023/05/20 12:30:20;;;;;;;3.53;2.80;;;19.20;99.90;;;;;;5071211;28;20456;-81
2023/05/20 12:32:48;;;;;;;3.20;2.90;;;19.20;99.90;;;;;;5070456;28;20447;-81
2023/05/20 12:35:15;;;;;;;4.13;2.20;;;19.40;99.90;;;;;;5070933;28;20535;-81
2023/05/20 12:37:43;;;;;;;5.60;2.47;;;19.50;99.90;;;;;;5070886;28;20540;-81
2023/05/20 12:40:11;;;;;;;3.30;2.30;;;19.50;99.90;;;;;;5070891;28;20695;-81
2023/05/20 12:42:39;;;;;;;2.60;1.90;;;19.60;99.90;;;;;;5069680;28;20484;-81
2023/05/20 12:45:07;;;;;;;3.43;2.97;;;19.60;99.90;;;;;;5070772;28;20569;-81
2023/05/20 12:47:36;;;;;;;2.87;2.57;;;19.60;99.90;;;;;;5071154;28;20471;-81
2023/05/20 12:50:04;;;;;;;3.60;2.87;;;19.60;99.90;;;;;;5070016;28;20450;-81
2023/05/20 12:52:31;;;;;;;4.47;2.93;;;19.70;99.90;;;;;;5070918;28;20447;-81